createdAt,value
2019-04-06T00:01:40.936Z,11.10
2019-04-06T00:04:07.175Z,11.10
2019-04-06T00:06:33.630Z,11.10
2019-04-06T00:08:59.878Z,11.10
2019-04-06T00:11:26.125Z,11.20
2019-04-06T00:14:12.320Z,11.20
2019-04-06T00:16:39.616Z,11.10
2019-04-06T00:19:05.883Z,11.10
2019-04-06T00:21:32.155Z,11.10
2019-04-06T00:23:58.512Z,11.20
2019-04-06T00:26:24.962Z,11.20
2019-04-06T00:28:51.216Z,11.20
2019-04-06T00:31:19.375Z,11.20
2019-04-06T00:33:45.606Z,11.20
2019-04-06T00:36:12.062Z,11.10
2019-04-06T00:38:38.307Z,11.10
2019-04-06T00:41:04.566Z,11.10
2019-04-06T00:43:30.825Z,11.00
2019-04-06T00:45:57.177Z,11.10
2019-04-06T00:48:23.414Z,11.00
2019-04-06T00:50:49.670Z,11.10
2019-04-06T00:53:16.006Z,11.10
2019-04-06T00:55:42.445Z,11.00
2019-04-06T00:58:08.749Z,11.00
2019-04-06T01:00:35.043Z,11.10
2019-04-06T01:03:01.247Z,11.10
2019-04-06T01:05:27.477Z,11.00
2019-04-06T01:07:53.721Z,11.10
2019-04-06T01:10:19.974Z,11.00
2019-04-06T01:12:46.214Z,11.00
2019-04-06T01:15:12.749Z,11.00
2019-04-06T01:17:38.989Z,10.90
2019-04-06T01:20:05.470Z,10.90
2019-04-06T01:22:31.838Z,10.90
2019-04-06T01:24:58.071Z,10.90
2019-04-06T01:27:24.312Z,10.90
2019-04-06T01:29:50.554Z,10.90
2019-04-06T01:32:16.824Z,11.00
2019-04-06T01:34:43.062Z,11.00
2019-04-06T01:37:09.290Z,11.00
2019-04-06T01:39:35.530Z,11.00
2019-04-06T01:42:01.787Z,11.00
2019-04-06T01:44:28.035Z,11.00
2019-04-06T01:46:54.284Z,11.00
2019-04-06T01:49:20.510Z,11.00
2019-04-06T01:51:46.801Z,10.90
2019-04-06T01:54:13.027Z,10.90
2019-04-06T01:56:39.277Z,10.90
2019-04-06T01:59:05.614Z,10.90
2019-04-06T02:01:33.822Z,10.80
2019-04-06T02:04:00.050Z,10.90
2019-04-06T02:06:26.286Z,10.90
2019-04-06T02:08:52.548Z,10.90
2019-04-06T02:11:18.825Z,10.90
2019-04-06T02:13:45.048Z,10.90
2019-04-06T02:16:11.265Z,10.80
2019-04-06T02:18:37.507Z,10.80
2019-04-06T02:21:03.784Z,10.80
2019-04-06T02:23:29.916Z,10.80
2019-04-06T02:25:56.166Z,10.80
2019-04-06T02:28:22.387Z,10.80
2019-04-06T02:30:56.400Z,10.80
2019-04-06T02:33:24.523Z,10.80
2019-04-06T02:35:55.560Z,10.80
2019-04-06T02:38:40.402Z,10.80
2019-04-06T02:41:25.542Z,10.80
2019-04-06T02:43:51.985Z,10.80
2019-04-06T02:46:18.226Z,10.80
2019-04-06T02:48:44.445Z,10.80
2019-04-06T02:51:10.809Z,10.70
2019-04-06T02:53:37.035Z,10.70
2019-04-06T02:56:03.379Z,10.70
2019-04-06T02:58:29.730Z,10.70
2019-04-06T03:00:55.945Z,10.70
2019-04-06T03:03:22.309Z,10.70
2019-04-06T03:05:48.615Z,10.70
2019-04-06T03:08:14.765Z,10.70
2019-04-06T03:10:41.414Z,10.70
2019-04-06T03:13:07.652Z,10.70
2019-04-06T03:15:33.980Z,10.80
2019-04-06T03:18:00.364Z,10.70
2019-04-06T03:20:26.547Z,10.70
2019-04-06T03:22:52.855Z,10.70
2019-04-06T03:25:19.205Z,10.70
2019-04-06T03:27:45.432Z,10.60
2019-04-06T03:30:12.404Z,10.60
2019-04-06T03:32:38.751Z,10.60
2019-04-06T03:35:05.785Z,10.60
2019-04-06T03:37:31.978Z,10.60
2019-04-06T03:39:58.199Z,10.60
2019-04-06T03:42:25.314Z,10.60
2019-04-06T03:44:51.548Z,10.60
2019-04-06T03:47:17.703Z,10.60
2019-04-06T03:49:44.025Z,10.60
2019-04-06T03:52:10.129Z,10.60
2019-04-06T03:54:36.248Z,10.60
2019-04-06T03:57:13.654Z,10.60
2019-04-06T03:59:30.374Z,10.60
2019-04-06T04:01:56.470Z,10.60
2019-04-06T04:04:22.604Z,10.60
2019-04-06T04:06:49.213Z,10.60
2019-04-06T04:09:15.517Z,10.50
2019-04-06T04:11:41.660Z,10.50
2019-04-06T04:14:07.770Z,10.50
2019-04-06T04:16:34.156Z,10.50
2019-04-06T04:19:00.410Z,10.50
2019-04-06T04:21:26.561Z,10.50
2019-04-06T04:23:52.956Z,10.50
2019-04-06T04:26:19.227Z,10.40
2019-04-06T04:28:45.434Z,10.40
2019-04-06T04:31:11.646Z,10.40
2019-04-06T04:33:37.767Z,10.40
2019-04-06T04:36:04.008Z,10.40
2019-04-06T04:38:30.174Z,10.40
2019-04-06T04:40:56.341Z,10.40
2019-04-06T04:43:22.661Z,10.40
2019-04-06T04:45:48.853Z,10.40
2019-04-06T04:48:15.047Z,10.40
2019-04-06T04:50:41.339Z,10.40
2019-04-06T04:53:07.498Z,10.40
2019-04-06T04:55:33.666Z,10.40
2019-04-06T04:57:59.889Z,10.40
2019-04-06T05:00:26.073Z,10.40
2019-04-06T05:02:52.258Z,10.40
2019-04-06T05:05:18.407Z,10.40
2019-04-06T05:07:44.756Z,10.40
2019-04-06T05:10:11.498Z,10.40
2019-04-06T05:12:37.756Z,10.30
2019-04-06T05:15:13.821Z,10.30
2019-04-06T05:17:40.073Z,10.20
2019-04-06T05:20:07.459Z,10.20
2019-04-06T05:22:33.611Z,10.20
2019-04-06T05:24:59.738Z,10.10
2019-04-06T05:27:26.016Z,10.10
2019-04-06T05:29:52.260Z,10.10
2019-04-06T05:32:18.383Z,10.00
2019-04-06T05:34:44.826Z,10.00
2019-04-06T05:37:11.018Z,10.00
2019-04-06T05:39:37.156Z,10.00
2019-04-06T05:42:03.860Z,10.10
2019-04-06T05:44:29.973Z,10.00
2019-04-06T05:46:56.069Z,10.10
2019-04-06T05:49:22.234Z,10.00
2019-04-06T05:51:48.414Z,10.10
2019-04-06T05:54:14.610Z,10.10
2019-04-06T05:56:40.728Z,10.00
2019-04-06T05:59:10.078Z,10.00
2019-04-06T06:01:34.839Z,10.00
2019-04-06T06:04:01.052Z,10.00
2019-04-06T06:06:27.495Z,10.10
2019-04-06T06:08:53.898Z,10.10
2019-04-06T06:11:20.046Z,10.10
2019-04-06T06:13:46.155Z,10.20
2019-04-06T06:16:12.361Z,10.10
2019-04-06T06:18:38.582Z,10.20
2019-04-06T06:21:04.967Z,10.20
2019-04-06T06:23:31.183Z,10.20
2019-04-06T06:25:57.934Z,10.20
2019-04-06T06:28:24.210Z,10.20
2019-04-06T06:30:50.494Z,10.20
2019-04-06T06:33:16.647Z,10.20
2019-04-06T06:35:42.748Z,10.20
2019-04-06T06:38:09.002Z,10.30
2019-04-06T06:40:35.176Z,10.30
2019-04-06T06:43:01.284Z,10.30
2019-04-06T06:45:27.392Z,10.40
2019-04-06T06:47:53.488Z,10.40
2019-04-06T06:50:19.607Z,10.40
2019-04-06T06:52:45.821Z,10.30
2019-04-06T06:55:12.133Z,10.40
2019-04-06T06:57:38.265Z,10.40
2019-04-06T07:00:05.562Z,10.40
2019-04-06T07:02:31.685Z,10.40
2019-04-06T07:04:57.887Z,10.40
2019-04-06T07:07:24.195Z,10.50
2019-04-06T07:09:50.428Z,10.50
2019-04-06T07:12:17.037Z,10.60
2019-04-06T07:14:44.394Z,10.60
2019-04-06T07:17:10.499Z,10.70
2019-04-06T07:19:36.646Z,10.70
2019-04-06T07:22:03.022Z,10.80
2019-04-06T07:24:29.414Z,10.80
2019-04-06T07:26:55.776Z,10.80
2019-04-06T07:29:22.046Z,10.80
2019-04-06T07:31:48.180Z,10.80
2019-04-06T07:34:14.358Z,10.90
2019-04-06T07:36:40.604Z,10.90
2019-04-06T07:39:07.011Z,11.00
2019-04-06T07:41:33.439Z,11.10
2019-04-06T07:43:59.681Z,11.20
2019-04-06T07:46:25.871Z,11.30
2019-04-06T07:48:52.005Z,11.30
2019-04-06T07:51:18.204Z,11.40
2019-04-06T07:53:44.338Z,11.40
2019-04-06T07:56:10.930Z,11.40
2019-04-06T07:58:47.909Z,11.60
2019-04-06T08:01:05.413Z,11.60
2019-04-06T08:03:31.622Z,11.70
2019-04-06T08:05:57.855Z,11.70
2019-04-06T08:08:24.083Z,11.70
2019-04-06T08:10:50.519Z,11.60
2019-04-06T08:13:16.766Z,11.60
2019-04-06T08:15:42.987Z,11.70
2019-04-06T08:18:09.316Z,11.70
2019-04-06T08:20:35.595Z,11.70
2019-04-06T08:23:01.845Z,11.80
2019-04-06T08:25:27.955Z,11.70
2019-04-06T08:27:54.100Z,11.70
2019-04-06T08:30:20.296Z,11.80
2019-04-06T08:32:46.520Z,11.80
2019-04-06T08:35:24.158Z,11.90
2019-04-06T08:37:40.934Z,12.00
2019-04-06T08:40:07.330Z,12.10
2019-04-06T08:42:33.454Z,12.10
2019-04-06T08:44:59.666Z,12.10
2019-04-06T08:47:25.846Z,12.20
2019-04-06T08:49:51.965Z,12.30
2019-04-06T08:52:18.141Z,12.40
2019-04-06T08:54:44.278Z,12.50
2019-04-06T08:57:10.411Z,12.60
2019-04-06T08:59:36.565Z,12.80
2019-04-06T09:02:02.755Z,13.10
2019-04-06T09:04:28.887Z,13.20
2019-04-06T09:06:55.009Z,13.40
2019-04-06T09:09:21.219Z,13.40
2019-04-06T09:11:47.389Z,13.50
2019-04-06T09:14:13.606Z,13.70
2019-04-06T09:16:39.753Z,13.80
2019-04-06T09:19:05.943Z,13.90
2019-04-06T09:21:32.139Z,14.00
2019-04-06T09:23:58.877Z,14.20
2019-04-06T09:26:25.863Z,14.30
2019-04-06T09:28:52.132Z,14.40
2019-04-06T09:31:18.332Z,14.50
2019-04-06T09:33:44.527Z,14.70
2019-04-06T09:36:10.662Z,14.70
2019-04-06T09:38:36.761Z,14.80
2019-04-06T09:41:02.995Z,14.80
2019-04-06T09:43:29.170Z,14.90
2019-04-06T09:46:13.986Z,15.00
2019-04-06T09:48:54.092Z,15.10
2019-04-06T09:51:40.249Z,15.10
2019-04-06T09:54:11.129Z,15.10
2019-04-06T09:56:45.331Z,15.20
2019-04-06T09:59:13.417Z,15.20
2019-04-06T10:01:47.353Z,15.40
2019-04-06T10:04:31.072Z,15.70
2019-04-06T10:07:16.049Z,16.00
2019-04-06T10:09:49.894Z,16.30
2019-04-06T10:12:17.974Z,16.50
2019-04-06T10:14:48.955Z,16.60
2019-04-06T10:17:25.930Z,16.70
2019-04-06T10:20:10.670Z,16.70
2019-04-06T10:22:38.711Z,16.60
2019-04-06T10:25:07.028Z,16.20
2019-04-06T10:27:44.112Z,15.90
2019-04-06T10:30:13.684Z,15.60
2019-04-06T10:32:51.011Z,15.40
2019-04-06T10:35:19.060Z,15.50
2019-04-06T10:38:04.315Z,15.80
2019-04-06T10:40:35.307Z,16.20
2019-04-06T10:43:03.302Z,16.30
2019-04-06T10:45:46.691Z,16.30
2019-04-06T10:48:31.201Z,16.30
2019-04-06T10:50:59.484Z,16.40
2019-04-06T10:53:39.895Z,16.50
2019-04-06T10:56:13.792Z,16.70
2019-04-06T10:58:53.757Z,16.80
2019-04-06T11:01:34.025Z,16.90
2019-04-06T11:04:04.948Z,16.90
2019-04-06T11:06:38.810Z,17.10
2019-04-06T11:09:11.502Z,17.30
2019-04-06T11:11:56.375Z,17.40
2019-04-06T11:14:40.710Z,17.30
2019-04-06T11:17:11.709Z,17.20
2019-04-06T11:19:39.699Z,17.00
2019-04-06T11:22:13.530Z,17.10
2019-04-06T11:24:41.924Z,17.20
2019-04-06T11:27:15.907Z,17.40
2019-04-06T11:30:11.291Z,17.40
2019-04-06T11:32:34.821Z,17.30
2019-04-06T11:35:19.718Z,17.40
2019-04-06T11:37:47.715Z,17.40
2019-04-06T11:40:32.981Z,17.20
2019-04-06T11:43:04.017Z,16.90
2019-04-06T11:45:48.694Z,16.70
2019-04-06T11:48:31.562Z,16.60
2019-04-06T11:51:05.386Z,16.60
2019-04-06T11:53:33.483Z,16.80
2019-04-06T11:56:01.527Z,16.90
2019-04-06T11:58:29.616Z,17.00
2019-04-06T12:01:09.736Z,17.10
2019-04-06T12:03:41.005Z,17.10
2019-04-06T12:06:14.734Z,17.20
2019-04-06T12:08:54.419Z,17.30
2019-04-06T12:11:40.886Z,17.30
2019-04-06T12:14:18.058Z,17.40
2019-04-06T12:16:57.893Z,17.40
2019-04-06T12:19:34.884Z,17.30
2019-04-06T12:22:03.118Z,17.30
2019-04-06T12:24:31.309Z,17.40
2019-04-06T12:27:02.308Z,17.60
2019-04-06T12:29:33.312Z,17.70
2019-04-06T12:32:17.995Z,17.70
2019-04-06T12:34:46.125Z,17.40
2019-04-06T12:37:26.440Z,17.20
2019-04-06T12:40:09.563Z,17.20
2019-04-06T12:42:40.540Z,17.10
2019-04-06T12:45:11.576Z,17.10
2019-04-06T12:47:56.815Z,17.00
2019-04-06T12:50:25.064Z,16.90
2019-04-06T12:53:10.727Z,17.00
2019-04-06T12:55:53.743Z,17.30
2019-04-06T12:58:27.798Z,17.80
2019-04-06T13:00:56.054Z,18.30
2019-04-06T13:03:32.834Z,18.50
2019-04-06T13:06:00.822Z,18.40
2019-04-06T13:08:28.849Z,18.40
2019-04-06T13:11:02.429Z,18.60
2019-04-06T13:13:36.191Z,18.80
2019-04-06T13:16:21.579Z,19.00
2019-04-06T13:18:59.157Z,19.00
2019-04-06T13:21:33.209Z,19.10
2019-04-06T13:24:10.136Z,19.10
2019-04-06T13:26:38.592Z,19.10
2019-04-06T13:29:06.986Z,19.10
2019-04-06T13:31:37.764Z,19.00
2019-04-06T13:34:17.762Z,18.90
2019-04-06T13:36:51.888Z,18.90
2019-04-06T13:39:23.110Z,19.10
2019-04-06T13:42:08.027Z,19.50
2019-04-06T13:44:44.904Z,20.10
2019-04-06T13:47:22.395Z,20.40
2019-04-06T13:50:07.415Z,20.60
2019-04-06T13:52:52.143Z,20.70
2019-04-06T13:55:25.990Z,20.80
2019-04-06T13:58:02.973Z,20.80
2019-04-06T14:00:36.789Z,20.60
2019-04-06T14:03:21.698Z,20.60
2019-04-06T14:05:49.818Z,20.70
2019-04-06T14:08:29.712Z,20.80
2019-04-06T14:11:00.830Z,20.70
2019-04-06T14:13:34.689Z,20.60
2019-04-06T14:16:05.705Z,20.40
2019-04-06T14:18:50.922Z,20.30
2019-04-06T14:21:21.563Z,20.30
2019-04-06T14:24:01.690Z,20.30
2019-04-06T14:26:35.643Z,20.30
2019-04-06T14:29:09.606Z,20.40
2019-04-06T14:31:37.619Z,20.50
2019-04-06T14:34:08.596Z,20.60
2019-04-06T14:36:36.590Z,20.70
2019-04-06T14:39:19.170Z,20.90
2019-04-06T14:41:56.295Z,20.90
2019-04-06T14:44:24.322Z,20.80
2019-04-06T14:47:01.742Z,21.00
2019-04-06T14:49:33.212Z,21.10
2019-04-06T14:52:10.069Z,21.10
2019-04-06T14:54:41.094Z,21.00
2019-04-06T14:57:09.184Z,21.20
2019-04-06T14:59:46.741Z,21.40
2019-04-06T15:02:15.065Z,21.50
2019-04-06T15:04:45.967Z,21.70
2019-04-06T15:07:13.990Z,22.00
2019-04-06T15:09:56.961Z,22.20
2019-04-06T15:12:41.611Z,21.90
2019-04-06T15:15:12.659Z,21.60
2019-04-06T15:17:46.941Z,21.40
2019-04-06T15:20:15.139Z,21.20
2019-04-06T15:22:51.852Z,20.90
2019-04-06T15:25:20.083Z,20.80
2019-04-06T15:27:57.388Z,20.60
2019-04-06T15:30:31.747Z,20.50
2019-04-06T15:33:16.569Z,20.40
2019-04-06T15:35:56.636Z,20.30
2019-04-06T15:38:41.256Z,20.10
2019-04-06T15:41:15.507Z,20.00
2019-04-06T15:43:50.265Z,20.00
2019-04-06T15:46:18.263Z,20.00
2019-04-06T15:48:49.054Z,19.90
2019-04-06T15:51:23.413Z,19.80
2019-04-06T15:54:03.663Z,19.80
2019-04-06T15:56:41.035Z,19.60
2019-04-06T15:59:20.125Z,19.40
2019-04-06T16:02:00.226Z,19.30
2019-04-06T16:04:20.875Z,19.10
2019-04-06T16:06:48.945Z,19.00
2019-04-06T16:09:22.907Z,19.00
2019-04-06T16:12:09.334Z,18.90
2019-04-06T16:14:40.327Z,18.90
2019-04-06T16:17:08.364Z,18.80
2019-04-06T16:19:45.356Z,18.70
2019-04-06T16:22:16.086Z,18.60
2019-04-06T16:25:01.178Z,18.40
2019-04-06T16:27:29.243Z,18.30
2019-04-06T16:29:57.271Z,18.20
2019-04-06T16:32:32.879Z,18.20
2019-04-06T16:35:12.119Z,18.10
2019-04-06T16:37:46.006Z,18.00
2019-04-06T16:40:19.943Z,18.00
2019-04-06T16:43:06.231Z,17.90
2019-04-06T16:45:34.872Z,17.90
2019-04-06T16:48:19.903Z,17.90
2019-04-06T16:51:05.049Z,18.00
2019-04-06T16:53:33.106Z,18.00
2019-04-06T16:56:13.028Z,18.00
2019-04-06T16:58:57.596Z,18.10
2019-04-06T17:01:28.164Z,18.00
2019-04-06T17:04:02.306Z,17.90
2019-04-06T17:06:33.527Z,17.80
2019-04-06T17:09:18.399Z,17.60
2019-04-06T17:12:03.908Z,17.50
2019-04-06T17:14:49.300Z,17.40
2019-04-06T17:17:29.718Z,17.30
2019-04-06T17:20:00.822Z,17.10
2019-04-06T17:22:29.351Z,17.00
2019-04-06T17:25:09.769Z,16.80
2019-04-06T17:27:46.778Z,16.70
2019-04-06T17:30:24.166Z,16.70
2019-04-06T17:33:07.611Z,16.60
2019-04-06T17:35:48.352Z,16.60
2019-04-06T17:38:22.616Z,16.60
2019-04-06T17:40:50.803Z,16.50
2019-04-06T17:43:21.419Z,16.40
2019-04-06T17:45:58.772Z,16.40
2019-04-06T17:48:45.364Z,16.30
2019-04-06T17:51:16.090Z,16.20
2019-04-06T17:53:50.297Z,16.10
2019-04-06T17:56:34.087Z,16.10
2019-04-06T17:59:08.259Z,16.00
2019-04-06T18:01:39.327Z,15.90
2019-04-06T18:04:22.739Z,15.80
2019-04-06T18:06:59.915Z,15.70
2019-04-06T18:09:30.818Z,15.60
2019-04-06T18:12:07.858Z,15.60
2019-04-06T18:14:34.050Z,15.50
2019-04-06T18:17:00.275Z,15.40
2019-04-06T18:19:26.396Z,15.30
2019-04-06T18:21:52.862Z,15.30
2019-04-06T18:24:19.487Z,15.20
2019-04-06T18:26:46.428Z,15.10
2019-04-06T18:29:12.747Z,15.10
2019-04-06T18:31:47.070Z,15.00
2019-04-06T18:34:13.672Z,15.00
2019-04-06T18:36:44.559Z,14.90
2019-04-06T18:39:12.043Z,14.90
2019-04-06T18:41:38.370Z,14.80
2019-04-06T18:44:04.717Z,14.80
2019-04-06T18:46:30.903Z,14.80
2019-04-06T18:48:57.378Z,14.70
2019-04-06T18:51:23.731Z,14.60
2019-04-06T18:53:50.318Z,14.60
2019-04-06T18:56:16.676Z,14.60
2019-04-06T18:58:42.840Z,14.60
2019-04-06T19:01:09.044Z,14.50
2019-04-06T19:03:35.647Z,14.50
2019-04-06T19:06:02.481Z,14.40
2019-04-06T19:08:28.739Z,14.40
2019-04-06T19:10:55.933Z,14.30
2019-04-06T19:13:23.185Z,14.30
2019-04-06T19:15:49.515Z,14.30
2019-04-06T19:18:15.832Z,14.20
2019-04-06T19:20:42.663Z,14.20
2019-04-06T19:23:09.371Z,14.20
2019-04-06T19:25:35.669Z,14.20
2019-04-06T19:28:01.813Z,14.20
2019-04-06T19:30:28.648Z,14.20
2019-04-06T19:32:55.204Z,14.10
2019-04-06T19:35:22.388Z,14.10
2019-04-06T19:37:48.616Z,14.00
2019-04-06T19:40:14.997Z,14.00
2019-04-06T19:42:41.106Z,13.90
2019-04-06T19:45:07.496Z,14.00
2019-04-06T19:47:33.621Z,13.90
2019-04-06T19:49:59.721Z,13.90
2019-04-06T19:52:25.826Z,13.90
2019-04-06T19:54:52.218Z,13.80
2019-04-06T19:57:18.672Z,13.80
2019-04-06T19:59:44.769Z,13.80
2019-04-06T20:02:10.990Z,13.80
2019-04-06T20:04:37.651Z,13.70
2019-04-06T20:07:03.880Z,13.70
2019-04-06T20:09:29.997Z,13.60
2019-04-06T20:12:04.169Z,13.60
2019-04-06T20:14:24.656Z,13.60
2019-04-06T20:16:51.297Z,13.50
2019-04-06T20:19:17.811Z,13.50
2019-04-06T20:21:44.092Z,13.50
2019-04-06T20:24:10.592Z,13.50
2019-04-06T20:26:37.431Z,13.40
2019-04-06T20:29:03.690Z,13.40
2019-04-06T20:31:30.461Z,13.40
2019-04-06T20:33:56.706Z,13.40
2019-04-06T20:36:22.822Z,13.40
2019-04-06T20:38:48.922Z,13.40
2019-04-06T20:41:15.288Z,13.30
2019-04-06T20:43:42.043Z,13.30
2019-04-06T20:46:08.351Z,13.30
2019-04-06T20:48:34.686Z,13.30
2019-04-06T20:51:00.878Z,13.20
2019-04-06T20:53:27.037Z,13.20
2019-04-06T20:55:53.242Z,13.20
2019-04-06T20:58:19.419Z,13.10
2019-04-06T21:00:45.938Z,13.10
2019-04-06T21:03:12.363Z,13.10
2019-04-06T21:05:38.643Z,13.10
2019-04-06T21:08:04.769Z,13.10
2019-04-06T21:10:31.442Z,13.00
2019-04-06T21:12:58.840Z,13.10
2019-04-06T21:15:25.273Z,13.00
2019-04-06T21:17:51.737Z,13.00
2019-04-06T21:20:18.347Z,13.00
2019-04-06T21:22:45.089Z,13.00
2019-04-06T21:25:12.087Z,13.00
2019-04-06T21:27:38.295Z,13.00
2019-04-06T21:30:07.006Z,13.00
2019-04-06T21:32:33.458Z,13.00
2019-04-06T21:35:00.320Z,13.00
2019-04-06T21:37:26.598Z,13.10
2019-04-06T21:39:53.251Z,13.00
2019-04-06T21:42:19.978Z,13.00
2019-04-06T21:44:46.106Z,13.00
2019-04-06T21:47:12.223Z,13.00
2019-04-06T21:49:38.973Z,12.90
2019-04-06T21:52:05.571Z,12.90
2019-04-06T21:54:31.776Z,12.90
2019-04-06T21:56:58.373Z,12.90
2019-04-06T21:59:24.939Z,12.80
2019-04-06T22:01:51.432Z,12.80
2019-04-06T22:04:23.589Z,12.80
2019-04-06T22:06:46.091Z,12.80
2019-04-06T22:09:13.027Z,12.80
2019-04-06T22:11:39.847Z,12.80
2019-04-06T22:14:06.149Z,12.70
2019-04-06T22:16:32.559Z,12.70
2019-04-06T22:18:58.838Z,12.70
2019-04-06T22:21:45.226Z,12.70
2019-04-06T22:24:11.483Z,12.70
2019-04-06T22:26:37.625Z,12.70
2019-04-06T22:29:04.039Z,12.60
2019-04-06T22:31:30.606Z,12.60
2019-04-06T22:33:57.075Z,12.60
2019-04-06T22:36:23.307Z,12.60
2019-04-06T22:38:49.484Z,12.60
2019-04-06T22:41:15.610Z,12.60
2019-04-06T22:43:41.791Z,12.60
2019-04-06T22:46:07.980Z,12.60
2019-04-06T22:48:34.658Z,12.60
2019-04-06T22:51:01.103Z,12.60
2019-04-06T22:53:27.304Z,12.60
2019-04-06T22:55:53.919Z,12.60
2019-04-06T22:58:20.863Z,12.60
2019-04-06T23:01:01.387Z,12.60
2019-04-06T23:03:45.106Z,12.60
2019-04-06T23:06:16.350Z,12.60
2019-04-06T23:08:42.555Z,12.60
2019-04-06T23:11:09.032Z,12.60
2019-04-06T23:13:35.288Z,12.60
2019-04-06T23:16:02.032Z,12.60
2019-04-06T23:18:28.553Z,12.70
2019-04-06T23:20:54.855Z,12.70
2019-04-06T23:23:20.969Z,12.70
2019-04-06T23:25:47.150Z,12.80
2019-04-06T23:28:13.763Z,12.80
2019-04-06T23:30:40.886Z,12.80
2019-04-06T23:33:07.197Z,12.80
2019-04-06T23:35:33.324Z,12.80
2019-04-06T23:37:59.555Z,12.90
2019-04-06T23:40:25.954Z,12.90
2019-04-06T23:42:52.592Z,12.90
2019-04-06T23:45:18.806Z,12.90
2019-04-06T23:47:45.482Z,12.90
2019-04-06T23:50:12.305Z,12.90
2019-04-06T23:52:38.587Z,12.90
2019-04-06T23:55:06.205Z,12.90
2019-04-06T23:57:32.433Z,12.90
2019-04-06T23:59:59.292Z,12.90
